Terminal Aerodrome Forecast
Issued by NWS

Home | Current Version | Previous Version | Text Only | Print | Product List | Glossary On
Versions: 1 2 3 4 5 6 7 8 9 10 11 12 13 14 15 16 17 18 19 20 21 22 23 24 25 26
000
FTUS45 KGJT 301735
TAFDRO
TAF
KDRO 301735Z 3018/3118 24005KT P6SM FEW180
     FM302000 25010G18KT P6SM FEW100 SCT180
     FM310200 29007KT P6SM FEW100 SCT180
     FM310600 VRB04KT P6SM SCT100=

USA.gov is the U.S. government's official web portal to all federal, state and local government web resources and services.